sensor_id;sensor_type;location;lat;lon;timestamp;pressure;altitude;pressure_sealevel;temperature;humidity
19811;BME280;10065;49.632;8.346;2022-07-10T00:02:21;101304.09;;;20.97;58.46
19811;BME280;10065;49.632;8.346;2022-07-10T00:04:49;101306.13;;;20.95;58.50
19811;BME280;10065;49.632;8.346;2022-07-10T00:07:17;101303.00;;;20.92;58.17
19811;BME280;10065;49.632;8.346;2022-07-10T00:09:44;101306.09;;;20.89;58.20
19811;BME280;10065;49.632;8.346;2022-07-10T00:12:12;101301.50;;;20.83;58.09
19811;BME280;10065;49.632;8.346;2022-07-10T00:14:40;101311.63;;;20.81;58.56
19811;BME280;10065;49.632;8.346;2022-07-10T00:17:08;101312.41;;;20.75;58.50
19811;BME280;10065;49.632;8.346;2022-07-10T00:19:37;101313.44;;;20.74;58.51
19811;BME280;10065;49.632;8.346;2022-07-10T00:22:04;101306.94;;;20.68;58.33
19811;BME280;10065;49.632;8.346;2022-07-10T00:24:32;101312.16;;;20.70;58.44
19811;BME280;10065;49.632;8.346;2022-07-10T00:27:00;101312.56;;;20.67;58.47
19811;BME280;10065;49.632;8.346;2022-07-10T00:29:28;101310.22;;;20.63;58.62
19811;BME280;10065;49.632;8.346;2022-07-10T00:31:55;101311.63;;;20.59;58.51
19811;BME280;10065;49.632;8.346;2022-07-10T00:34:23;101304.97;;;20.55;58.50
19811;BME280;10065;49.632;8.346;2022-07-10T00:36:52;101302.00;;;20.50;58.07
19811;BME280;10065;49.632;8.346;2022-07-10T00:39:20;101319.84;;;20.51;58.02
19811;BME280;10065;49.632;8.346;2022-07-10T00:41:48;101314.03;;;20.48;58.00
19811;BME280;10065;49.632;8.346;2022-07-10T00:44:15;101314.59;;;20.43;58.06
19811;BME280;10065;49.632;8.346;2022-07-10T00:46:43;101317.69;;;20.40;57.93
19811;BME280;10065;49.632;8.346;2022-07-10T00:49:11;101313.03;;;20.34;58.16
19811;BME280;10065;49.632;8.346;2022-07-10T00:51:39;101320.09;;;20.35;57.96
19811;BME280;10065;49.632;8.346;2022-07-10T00:54:08;101323.25;;;20.39;57.67
19811;BME280;10065;49.632;8.346;2022-07-10T00:56:36;101323.25;;;20.39;57.72
19811;BME280;10065;49.632;8.346;2022-07-10T00:59:04;101321.78;;;20.36;57.94
19811;BME280;10065;49.632;8.346;2022-07-10T01:01:32;101315.75;;;20.34;57.55
19811;BME280;10065;49.632;8.346;2022-07-10T01:04:00;101312.88;;;20.21;58.08
19811;BME280;10065;49.632;8.346;2022-07-10T01:06:28;101314.75;;;20.20;57.82
19811;BME280;10065;49.632;8.346;2022-07-10T01:08:56;101321.72;;;20.15;58.17
19811;BME280;10065;49.632;8.346;2022-07-10T01:11:25;101314.47;;;20.15;57.99
19811;BME280;10065;49.632;8.346;2022-07-10T01:13:53;101314.22;;;20.10;57.93
19811;BME280;10065;49.632;8.346;2022-07-10T01:16:21;101319.78;;;20.09;58.15
19811;BME280;10065;49.632;8.346;2022-07-10T01:18:49;101308.38;;;20.07;57.99
19811;BME280;10065;49.632;8.346;2022-07-10T01:21:25;101319.13;;;20.07;58.21
19811;BME280;10065;49.632;8.346;2022-07-10T01:23:54;101330.00;;;19.99;58.40
19811;BME280;10065;49.632;8.346;2022-07-10T01:26:22;101327.44;;;19.90;58.80
19811;BME280;10065;49.632;8.346;2022-07-10T01:28:51;101331.16;;;19.89;58.46
19811;BME280;10065;49.632;8.346;2022-07-10T01:31:20;101338.31;;;19.82;58.53
19811;BME280;10065;49.632;8.346;2022-07-10T01:33:51;101336.63;;;19.81;58.75
19811;BME280;10065;49.632;8.346;2022-07-10T01:36:20;101338.66;;;19.79;58.79
19811;BME280;10065;49.632;8.346;2022-07-10T01:38:52;101330.22;;;19.82;58.53
19811;BME280;10065;49.632;8.346;2022-07-10T01:41:20;101328.56;;;19.81;58.74
19811;BME280;10065;49.632;8.346;2022-07-10T01:43:47;101328.94;;;19.78;58.83
19811;BME280;10065;49.632;8.346;2022-07-10T01:46:15;101338.88;;;19.78;59.13
19811;BME280;10065;49.632;8.346;2022-07-10T01:48:44;101338.78;;;19.71;58.92
19811;BME280;10065;49.632;8.346;2022-07-10T01:51:12;101347.97;;;19.62;59.43
19811;BME280;10065;49.632;8.346;2022-07-10T01:53:40;101347.22;;;19.53;59.62
19811;BME280;10065;49.632;8.346;2022-07-10T01:56:11;101347.22;;;19.53;59.96
19811;BME280;10065;49.632;8.346;2022-07-10T01:58:40;101349.47;;;19.50;59.85
19811;BME280;10065;49.632;8.346;2022-07-10T02:01:09;101340.56;;;19.49;59.92
19811;BME280;10065;49.632;8.346;2022-07-10T02:03:37;101342.91;;;19.44;59.89
19811;BME280;10065;49.632;8.346;2022-07-10T02:06:22;101344.84;;;19.36;60.33
19811;BME280;10065;49.632;8.346;2022-07-10T02:08:50;101346.72;;;19.35;60.00
19811;BME280;10065;49.632;8.346;2022-07-10T02:11:19;101355.63;;;19.36;60.06
19811;BME280;10065;49.632;8.346;2022-07-10T02:13:47;101352.66;;;19.31;59.89
19811;BME280;10065;49.632;8.346;2022-07-10T02:16:15;101344.41;;;19.32;60.21
19811;BME280;10065;49.632;8.346;2022-07-10T02:18:42;101353.13;;;19.34;59.54
19811;BME280;10065;49.632;8.346;2022-07-10T02:21:10;101351.81;;;19.30;59.81
19811;BME280;10065;49.632;8.346;2022-07-10T02:23:38;101349.47;;;19.27;60.06
19811;BME280;10065;49.632;8.346;2022-07-10T02:26:07;101354.41;;;19.24;59.76
19811;BME280;10065;49.632;8.346;2022-07-10T02:28:36;101354.78;;;19.21;59.63
19811;BME280;10065;49.632;8.346;2022-07-10T02:31:04;101348.38;;;19.22;59.71
19811;BME280;10065;49.632;8.346;2022-07-10T02:33:32;101353.41;;;19.25;59.55
19811;BME280;10065;49.632;8.346;2022-07-10T02:36:00;101352.56;;;19.24;59.24
19811;BME280;10065;49.632;8.346;2022-07-10T02:38:28;101355.88;;;19.26;59.30
19811;BME280;10065;49.632;8.346;2022-07-10T02:40:55;101356.25;;;19.23;59.67
19811;BME280;10065;49.632;8.346;2022-07-10T02:43:23;101355.78;;;19.20;59.50
19811;BME280;10065;49.632;8.346;2022-07-10T02:45:52;101356.09;;;19.25;59.47
19811;BME280;10065;49.632;8.346;2022-07-10T02:48:20;101351.91;;;19.22;59.33
19811;BME280;10065;49.632;8.346;2022-07-10T02:50:48;101348.38;;;19.22;59.60
19811;BME280;10065;49.632;8.346;2022-07-10T02:53:16;101350.06;;;19.23;59.15
19811;BME280;10065;49.632;8.346;2022-07-10T02:55:43;101350.41;;;19.20;59.02
19811;BME280;10065;49.632;8.346;2022-07-10T02:58:11;101343.56;;;19.17;58.88
19811;BME280;10065;49.632;8.346;2022-07-10T03:00:41;101348.94;;;19.17;59.19
19811;BME280;10065;49.632;8.346;2022-07-10T03:03:10;101358.84;;;19.16;59.10
19811;BME280;10065;49.632;8.346;2022-07-10T03:05:38;101354.19;;;19.10;59.00
19811;BME280;10065;49.632;8.346;2022-07-10T03:08:06;101355.69;;;19.13;58.88
19811;BME280;10065;49.632;8.346;2022-07-10T03:10:34;101363.28;;;19.09;58.89
19811;BME280;10065;49.632;8.346;2022-07-10T03:13:02;101358.09;;;19.08;58.58
19811;BME280;10065;49.632;8.346;2022-07-10T03:15:29;101354.56;;;19.07;58.79
19811;BME280;10065;49.632;8.346;2022-07-10T03:17:57;101358.63;;;19.03;58.73
19811;BME280;10065;49.632;8.346;2022-07-10T03:20:27;101351.41;;;19.04;58.66
19811;BME280;10065;49.632;8.346;2022-07-10T03:22:54;101353.75;;;19.07;58.55
19811;BME280;10065;49.632;8.346;2022-07-10T03:25:22;101353.91;;;19.05;58.54
19811;BME280;10065;49.632;8.346;2022-07-10T03:27:50;101355.59;;;19.06;58.52
19811;BME280;10065;49.632;8.346;2022-07-10T03:30:18;101359.28;;;19.05;58.33
19811;BME280;10065;49.632;8.346;2022-07-10T03:32:46;101368.19;;;19.06;58.34
19811;BME280;10065;49.632;8.346;2022-07-10T03:35:14;101360.47;;;19.03;58.42
19811;BME280;10065;49.632;8.346;2022-07-10T03:37:43;101364.84;;;19.04;58.01
19811;BME280;10065;49.632;8.346;2022-07-10T03:40:11;101368.91;;;19.00;58.28
19811;BME280;10065;49.632;8.346;2022-07-10T03:42:39;101367.25;;;18.99;58.18
19811;BME280;10065;49.632;8.346;2022-07-10T03:45:07;101362.22;;;18.96;58.24
19811;BME280;10065;49.632;8.346;2022-07-10T03:47:35;101371.47;;;18.93;58.40
19811;BME280;10065;49.632;8.346;2022-07-10T03:50:03;101369.44;;;18.95;58.50
19811;BME280;10065;49.632;8.346;2022-07-10T03:52:31;101369.44;;;18.95;58.15
19811;BME280;10065;49.632;8.346;2022-07-10T03:55:00;101371.47;;;18.93;58.27
19811;BME280;10065;49.632;8.346;2022-07-10T03:57:28;101369.81;;;18.92;58.26
19811;BME280;10065;49.632;8.346;2022-07-10T04:00:13;101367.94;;;18.93;58.06
19811;BME280;10065;49.632;8.346;2022-07-10T04:02:41;101368.50;;;18.88;58.10
19811;BME280;10065;49.632;8.346;2022-07-10T04:05:09;101370.19;;;18.89;58.16
19811;BME280;10065;49.632;8.346;2022-07-10T04:07:37;101372.88;;;18.89;57.74
19811;BME280;10065;49.632;8.346;2022-07-10T04:10:08;101369.19;;;18.90;58.16
19811;BME280;10065;49.632;8.346;2022-07-10T04:12:36;101371.88;;;18.90;57.97
19811;BME280;10065;49.632;8.346;2022-07-10T04:15:05;101372.56;;;18.84;58.26
19811;BME280;10065;49.632;8.346;2022-07-10T04:17:33;101373.94;;;18.80;58.03
19811;BME280;10065;49.632;8.346;2022-07-10T04:20:00;101362.53;;;18.78;58.26
19811;BME280;10065;49.632;8.346;2022-07-10T04:22:28;101367.44;;;18.74;58.16
19811;BME280;10065;49.632;8.346;2022-07-10T04:24:56;101358.84;;;18.79;57.78
19811;BME280;10065;49.632;8.346;2022-07-10T04:27:25;101361.53;;;18.79;57.77
19811;BME280;10065;49.632;8.346;2022-07-10T04:29:53;101372.28;;;18.79;57.79
19811;BME280;10065;49.632;8.346;2022-07-10T04:32:21;101375.81;;;18.79;57.75
19811;BME280;10065;49.632;8.346;2022-07-10T04:34:49;101384.53;;;18.82;57.21
19811;BME280;10065;49.632;8.346;2022-07-10T04:37:16;101389.41;;;18.78;57.02
19811;BME280;10065;49.632;8.346;2022-07-10T04:39:44;101384.22;;;18.76;57.44
19811;BME280;10065;49.632;8.346;2022-07-10T04:42:12;101395.78;;;18.77;57.05
19811;BME280;10065;49.632;8.346;2022-07-10T04:44:41;101391.44;;;18.76;57.43
19811;BME280;10065;49.632;8.346;2022-07-10T04:47:09;101369.47;;;18.72;57.37
19811;BME280;10065;49.632;8.346;2022-07-10T04:49:36;101395.50;;;18.72;57.78
19811;BME280;10065;49.632;8.346;2022-07-10T04:52:05;101397.66;;;18.76;57.35
19811;BME280;10065;49.632;8.346;2022-07-10T04:54:32;101393.94;;;18.77;56.82
19811;BME280;10065;49.632;8.346;2022-07-10T04:57:00;101406.88;;;18.82;56.43
19811;BME280;10065;49.632;8.346;2022-07-10T04:59:28;101410.19;;;18.84;55.83
19811;BME280;10065;49.632;8.346;2022-07-10T05:01:57;101403.97;;;18.84;55.84
19811;BME280;10065;49.632;8.346;2022-07-10T05:04:25;101406.47;;;18.85;55.66
19811;BME280;10065;49.632;8.346;2022-07-10T05:06:52;101405.47;;;18.86;55.21
19811;BME280;10065;49.632;8.346;2022-07-10T05:09:20;101406.13;;;18.88;55.30
19811;BME280;10065;49.632;8.346;2022-07-10T05:11:48;101410.00;;;18.86;55.40
19811;BME280;10065;49.632;8.346;2022-07-10T05:14:16;101416.88;;;18.88;54.92
19811;BME280;10065;49.632;8.346;2022-07-10T05:16:43;101421.88;;;18.91;55.02
19811;BME280;10065;49.632;8.346;2022-07-10T05:19:13;101427.25;;;18.91;54.78
19811;BME280;10065;49.632;8.346;2022-07-10T05:21:40;101430.59;;;18.93;54.01
19811;BME280;10065;49.632;8.346;2022-07-10T05:24:08;101418.13;;;19.00;54.11
19811;BME280;10065;49.632;8.346;2022-07-10T05:26:36;101426.50;;;19.05;53.82
19811;BME280;10065;49.632;8.346;2022-07-10T05:29:04;101427.16;;;19.07;53.32
19811;BME280;10065;49.632;8.346;2022-07-10T05:31:31;101421.78;;;19.07;53.19
19811;BME280;10065;49.632;8.346;2022-07-10T05:33:59;101429.84;;;19.07;53.30
19811;BME280;10065;49.632;8.346;2022-07-10T05:36:31;101427.41;;;18.98;53.37
19811;BME280;10065;49.632;8.346;2022-07-10T05:38:58;101429.91;;;18.99;53.53
19811;BME280;10065;49.632;8.346;2022-07-10T05:41:26;101429.78;;;18.93;53.42
19811;BME280;10065;49.632;8.346;2022-07-10T05:43:54;101429.66;;;18.86;53.48
19811;BME280;10065;49.632;8.346;2022-07-10T05:46:22;101434.53;;;18.83;53.88
19811;BME280;10065;49.632;8.346;2022-07-10T05:48:50;101431.69;;;18.84;53.13
19811;BME280;10065;49.632;8.346;2022-07-10T05:51:18;101437.28;;;18.74;53.33
19811;BME280;10065;49.632;8.346;2022-07-10T05:53:59;101438.66;;;18.70;53.42
19811;BME280;10065;49.632;8.346;2022-07-10T05:56:26;101441.81;;;18.74;53.15
19811;BME280;10065;49.632;8.346;2022-07-10T05:58:54;101437.13;;;18.76;52.96
19811;BME280;10065;49.632;8.346;2022-07-10T06:01:22;101432.69;;;18.83;52.41
19811;BME280;10065;49.632;8.346;2022-07-10T06:03:50;101438.84;;;18.92;52.32
19811;BME280;10065;49.632;8.346;2022-07-10T06:06:18;101447.69;;;19.00;51.70
19811;BME280;10065;49.632;8.346;2022-07-10T06:08:46;101442.91;;;19.10;50.65
19811;BME280;10065;49.632;8.346;2022-07-10T06:11:15;101442.22;;;19.16;50.88
19811;BME280;10065;49.632;8.346;2022-07-10T06:13:43;101451.88;;;19.26;50.54
19811;BME280;10065;49.632;8.346;2022-07-10T06:16:11;101440.75;;;19.29;50.28
19811;BME280;10065;49.632;8.346;2022-07-10T06:18:39;101458.03;;;19.34;49.89
19811;BME280;10065;49.632;8.346;2022-07-10T06:21:07;101445.50;;;19.41;50.12
19811;BME280;10065;49.632;8.346;2022-07-10T06:23:35;101450.00;;;19.49;49.19
19811;BME280;10065;49.632;8.346;2022-07-10T06:26:03;101446.13;;;19.51;48.89
19811;BME280;10065;49.632;8.346;2022-07-10T06:28:34;101452.63;;;19.57;48.15
19811;BME280;10065;49.632;8.346;2022-07-10T06:31:02;101452.25;;;19.60;47.91
19811;BME280;10065;49.632;8.346;2022-07-10T06:33:31;101450.19;;;19.62;46.92
19811;BME280;10065;49.632;8.346;2022-07-10T06:36:02;101460.97;;;19.62;46.04
19811;BME280;10065;49.632;8.346;2022-07-10T06:38:29;101450.41;;;19.61;45.74
19811;BME280;10065;49.632;8.346;2022-07-10T06:40:57;101440.41;;;19.69;45.15
19811;BME280;10065;49.632;8.346;2022-07-10T06:43:25;101442.81;;;19.79;44.71
19811;BME280;10065;49.632;8.346;2022-07-10T06:45:54;101454.22;;;19.81;44.70
19811;BME280;10065;49.632;8.346;2022-07-10T06:48:22;101452.09;;;19.76;44.59
19811;BME280;10065;49.632;8.346;2022-07-10T06:50:51;101442.25;;;19.69;44.06
19811;BME280;10065;49.632;8.346;2022-07-10T06:53:19;101444.19;;;19.75;44.00
19811;BME280;10065;49.632;8.346;2022-07-10T06:55:50;101450.69;;;19.80;43.50
19811;BME280;10065;49.632;8.346;2022-07-10T06:58:18;101451.69;;;19.79;43.59
19811;BME280;10065;49.632;8.346;2022-07-10T07:00:46;101447.72;;;19.75;43.67
19811;BME280;10065;49.632;8.346;2022-07-10T07:03:15;101454.13;;;19.74;43.70
19811;BME280;10065;49.632;8.346;2022-07-10T07:05:43;101452.19;;;19.68;43.45
19811;BME280;10065;49.632;8.346;2022-07-10T07:08:10;101463.03;;;19.60;43.01
19811;BME280;10065;49.632;8.346;2022-07-10T07:10:40;101464.03;;;19.59;42.38
19811;BME280;10065;49.632;8.346;2022-07-10T07:13:08;101467.25;;;19.54;42.13
19811;BME280;10065;49.632;8.346;2022-07-10T07:15:36;101466.81;;;19.51;42.35
19811;BME280;10065;49.632;8.346;2022-07-10T07:18:08;101463.09;;;19.52;42.69
19811;BME280;10065;49.632;8.346;2022-07-10T07:20:40;101461.88;;;19.54;42.06
19811;BME280;10065;49.632;8.346;2022-07-10T07:23:25;101458.94;;;19.64;42.51
19811;BME280;10065;49.632;8.346;2022-07-10T07:25:53;101456.06;;;19.66;42.83
19811;BME280;10065;49.632;8.346;2022-07-10T07:28:22;101457.28;;;19.78;42.98
19811;BME280;10065;49.632;8.346;2022-07-10T07:30:50;101458.59;;;19.82;42.54
19811;BME280;10065;49.632;8.346;2022-07-10T07:33:18;101458.66;;;19.88;42.82
19811;BME280;10065;49.632;8.346;2022-07-10T07:35:47;101465.09;;;19.87;43.10
19811;BME280;10065;49.632;8.346;2022-07-10T07:38:15;101459.72;;;19.87;43.39
19811;BME280;10065;49.632;8.346;2022-07-10T07:40:43;101451.66;;;19.87;43.41
19811;BME280;10065;49.632;8.346;2022-07-10T07:43:11;101452.94;;;19.91;42.95
19811;BME280;10065;49.632;8.346;2022-07-10T07:45:39;101464.91;;;20.04;43.18
19811;BME280;10065;49.632;8.346;2022-07-10T07:48:07;101468.97;;;20.14;42.37
19811;BME280;10065;49.632;8.346;2022-07-10T07:50:35;101459.59;;;20.25;41.84
19811;BME280;10065;49.632;8.346;2022-07-10T07:53:05;101462.19;;;20.33;41.46
19811;BME280;10065;49.632;8.346;2022-07-10T07:55:34;101460.06;;;20.43;41.41
19811;BME280;10065;49.632;8.346;2022-07-10T07:58:02;101466.56;;;20.49;41.13
19811;BME280;10065;49.632;8.346;2022-07-10T08:00:30;101467.56;;;20.62;40.86
19811;BME280;10065;49.632;8.346;2022-07-10T08:02:59;101461.41;;;20.69;40.57
19811;BME280;10065;49.632;8.346;2022-07-10T08:05:27;101453.19;;;20.77;40.11
19811;BME280;10065;49.632;8.346;2022-07-10T08:07:56;101457.84;;;20.83;40.87
19811;BME280;10065;49.632;8.346;2022-07-10T08:10:27;101455.00;;;20.91;40.66
19811;BME280;10065;49.632;8.346;2022-07-10T08:12:55;101457.97;;;20.96;40.34
19811;BME280;10065;49.632;8.346;2022-07-10T08:15:23;101454.28;;;21.03;40.28
19811;BME280;10065;49.632;8.346;2022-07-10T08:17:52;101456.66;;;21.13;39.99
19811;BME280;10065;49.632;8.346;2022-07-10T08:20:20;101448.09;;;21.24;40.29
19811;BME280;10065;49.632;8.346;2022-07-10T08:22:49;101441.31;;;21.28;39.55
19811;BME280;10065;49.632;8.346;2022-07-10T08:25:27;101436.97;;;21.34;40.18
19811;BME280;10065;49.632;8.346;2022-07-10T08:27:59;101453.47;;;21.46;40.45
19811;BME280;10065;49.632;8.346;2022-07-10T08:30:27;101439.88;;;21.60;39.88
19811;BME280;10065;49.632;8.346;2022-07-10T08:32:55;101445.31;;;21.67;39.61
19811;BME280;10065;49.632;8.346;2022-07-10T08:35:23;101450.81;;;21.80;38.83
19811;BME280;10065;49.632;8.346;2022-07-10T08:37:51;101434.19;;;21.83;38.97
19811;BME280;10065;49.632;8.346;2022-07-10T08:40:21;101439.84;;;21.88;38.77
19811;BME280;10065;49.632;8.346;2022-07-10T08:42:51;101440.53;;;21.97;38.61
19811;BME280;10065;49.632;8.346;2022-07-10T08:45:18;101436.81;;;21.98;38.35
19811;BME280;10065;49.632;8.346;2022-07-10T08:47:49;101445.47;;;21.93;38.39
19811;BME280;10065;49.632;8.346;2022-07-10T08:50:18;101431.19;;;21.99;38.63
19811;BME280;10065;49.632;8.346;2022-07-10T08:52:52;101435.38;;;22.02;38.65
19811;BME280;10065;49.632;8.346;2022-07-10T08:55:24;101439.31;;;21.99;39.13
19811;BME280;10065;49.632;8.346;2022-07-10T08:57:55;101432.97;;;21.86;38.58
19811;BME280;10065;49.632;8.346;2022-07-10T09:00:23;101426.00;;;21.63;38.68
19811;BME280;10065;49.632;8.346;2022-07-10T09:02:53;101446.44;;;21.51;39.01
19811;BME280;10065;49.632;8.346;2022-07-10T09:05:21;101432.22;;;21.36;39.05
19811;BME280;10065;49.632;8.346;2022-07-10T09:07:49;101440.00;;;21.24;39.31
19811;BME280;10065;49.632;8.346;2022-07-10T09:10:20;101430.88;;;21.25;39.59
19811;BME280;10065;49.632;8.346;2022-07-10T09:12:50;101436.78;;;21.35;39.74
19811;BME280;10065;49.632;8.346;2022-07-10T09:15:21;101431.09;;;21.52;39.56
19811;BME280;10065;49.632;8.346;2022-07-10T09:17:51;101438.00;;;21.61;39.95
19811;BME280;10065;49.632;8.346;2022-07-10T09:20:27;101441.59;;;21.68;38.92
19811;BME280;10065;49.632;8.346;2022-07-10T09:22:57;101430.56;;;21.63;38.69
19811;BME280;10065;49.632;8.346;2022-07-10T09:25:32;101434.44;;;21.54;38.64
19811;BME280;10065;49.632;8.346;2022-07-10T09:28:01;101432.31;;;21.49;38.88
19811;BME280;10065;49.632;8.346;2022-07-10T09:30:35;101435.13;;;21.62;39.02
19811;BME280;10065;49.632;8.346;2022-07-10T09:33:20;101431.50;;;21.83;38.73
19811;BME280;10065;49.632;8.346;2022-07-10T09:35:59;101436.22;;;22.02;38.86
19811;BME280;10065;49.632;8.346;2022-07-10T09:38:51;101430.91;;;22.16;38.08
19811;BME280;10065;49.632;8.346;2022-07-10T09:41:22;101426.16;;;22.31;37.76
19811;BME280;10065;49.632;8.346;2022-07-10T09:43:51;101417.91;;;22.52;37.81
19811;BME280;10065;49.632;8.346;2022-07-10T09:46:22;101400.28;;;22.69;37.98
19811;BME280;10065;49.632;8.346;2022-07-10T09:49:07;101410.31;;;22.75;36.96
19811;BME280;10065;49.632;8.346;2022-07-10T09:51:37;101414.09;;;22.94;36.81
19811;BME280;10065;49.632;8.346;2022-07-10T09:54:13;101415.97;;;23.00;36.34
19811;BME280;10065;49.632;8.346;2022-07-10T09:56:42;101411.00;;;23.04;36.53
19811;BME280;10065;49.632;8.346;2022-07-10T09:59:12;101402.22;;;23.15;36.31
19811;BME280;10065;49.632;8.346;2022-07-10T10:01:45;101415.56;;;23.23;36.79
19811;BME280;10065;49.632;8.346;2022-07-10T10:04:15;101417.00;;;23.32;36.72
19811;BME280;10065;49.632;8.346;2022-07-10T10:06:45;101408.47;;;23.35;36.24
19811;BME280;10065;49.632;8.346;2022-07-10T10:09:19;101405.16;;;23.26;36.40
19811;BME280;10065;49.632;8.346;2022-07-10T10:11:49;101408.47;;;23.09;36.22
19811;BME280;10065;49.632;8.346;2022-07-10T10:14:20;101398.69;;;23.14;36.79
19811;BME280;10065;49.632;8.346;2022-07-10T10:16:52;101393.50;;;23.26;36.47
19811;BME280;10065;49.632;8.346;2022-07-10T10:19:23;101393.50;;;23.39;36.20
19811;BME280;10065;49.632;8.346;2022-07-10T10:22:09;101382.03;;;23.37;36.34
19811;BME280;10065;49.632;8.346;2022-07-10T10:24:42;101390.59;;;23.21;36.73
19811;BME280;10065;49.632;8.346;2022-07-10T10:27:10;101396.00;;;23.21;36.82
19811;BME280;10065;49.632;8.346;2022-07-10T10:29:38;101384.94;;;23.42;37.11
19811;BME280;10065;49.632;8.346;2022-07-10T10:32:09;101386.41;;;23.65;36.44
19811;BME280;10065;49.632;8.346;2022-07-10T10:34:38;101380.16;;;23.64;35.99
19811;BME280;10065;49.632;8.346;2022-07-10T10:37:06;101392.25;;;23.48;35.90
19811;BME280;10065;49.632;8.346;2022-07-10T10:39:51;101392.47;;;23.20;36.11
19811;BME280;10065;49.632;8.346;2022-07-10T10:42:35;101387.88;;;23.27;36.46
19811;BME280;10065;49.632;8.346;2022-07-10T10:45:23;101385.16;;;23.34;35.82
19811;BME280;10065;49.632;8.346;2022-07-10T10:47:59;101378.94;;;23.20;36.05
19811;BME280;10065;49.632;8.346;2022-07-10T10:50:48;101374.34;;;23.14;36.43
19811;BME280;10065;49.632;8.346;2022-07-10T10:53:18;101374.34;;;23.08;37.21
19811;BME280;10065;49.632;8.346;2022-07-10T10:59:01;101365.19;;;23.09;36.95
19811;BME280;10065;49.632;8.346;2022-07-10T11:01:29;101373.31;;;23.09;37.18
19811;BME280;10065;49.632;8.346;2022-07-10T11:04:16;101370.19;;;23.05;37.03
19811;BME280;10065;49.632;8.346;2022-07-10T11:06:47;101367.28;;;22.94;37.36
19811;BME280;10065;49.632;8.346;2022-07-10T11:09:22;101357.91;;;22.83;37.76
19811;BME280;10065;49.632;8.346;2022-07-10T11:12:01;101366.63;;;22.78;38.08
19811;BME280;10065;49.632;8.346;2022-07-10T11:14:30;101378.03;;;22.74;38.26
19811;BME280;10065;49.632;8.346;2022-07-10T11:16:59;101368.09;;;22.74;38.05
19811;BME280;10065;49.632;8.346;2022-07-10T11:19:30;101360.63;;;22.89;37.91
19811;BME280;10065;49.632;8.346;2022-07-10T11:22:17;101366.66;;;23.11;37.88
19811;BME280;10065;49.632;8.346;2022-07-10T11:24:59;101368.53;;;23.31;37.79
19811;BME280;10065;49.632;8.346;2022-07-10T11:27:36;101363.91;;;23.44;37.07
19811;BME280;10065;49.632;8.346;2022-07-10T11:30:09;101358.31;;;23.52;36.83
19811;BME280;10065;49.632;8.346;2022-07-10T11:32:38;101358.06;;;23.60;36.96
19811;BME280;10065;49.632;8.346;2022-07-10T11:35:10;101359.34;;;23.51;37.06
19811;BME280;10065;49.632;8.346;2022-07-10T11:37:48;101352.91;;;23.39;36.99
19811;BME280;10065;49.632;8.346;2022-07-10T11:40:17;101355.63;;;23.26;37.61
19811;BME280;10065;49.632;8.346;2022-07-10T11:42:52;101350.19;;;23.33;38.02
19811;BME280;10065;49.632;8.346;2022-07-10T11:45:25;101361.41;;;23.43;38.08
19811;BME280;10065;49.632;8.346;2022-07-10T11:47:55;101348.06;;;23.68;37.26
19811;BME280;10065;49.632;8.346;2022-07-10T11:50:25;101348.81;;;23.88;36.65
19811;BME280;10065;49.632;8.346;2022-07-10T11:52:54;101348.53;;;24.09;36.59
19811;BME280;10065;49.632;8.346;2022-07-10T11:55:23;101341.59;;;24.26;36.00
19811;BME280;10065;49.632;8.346;2022-07-10T11:57:51;101331.97;;;24.30;36.30
19811;BME280;10065;49.632;8.346;2022-07-10T12:00:23;101337.44;;;24.24;35.87
19811;BME280;10065;49.632;8.346;2022-07-10T12:02:52;101336.81;;;24.15;36.01
19811;BME280;10065;49.632;8.346;2022-07-10T12:05:35;101333.69;;;24.18;35.99
19811;BME280;10065;49.632;8.346;2022-07-10T12:08:04;101337.59;;;24.29;36.57
19811;BME280;10065;49.632;8.346;2022-07-10T12:10:33;101333.28;;;24.15;36.34
19811;BME280;10065;49.632;8.346;2022-07-10T12:13:05;101331.69;;;24.00;36.70
19811;BME280;10065;49.632;8.346;2022-07-10T12:15:34;101334.03;;;23.90;36.88
19811;BME280;10065;49.632;8.346;2022-07-10T12:18:04;101331.78;;;23.81;36.74
19811;BME280;10065;49.632;8.346;2022-07-10T12:20:34;101335.28;;;23.88;36.84
19811;BME280;10065;49.632;8.346;2022-07-10T12:23:03;101330.63;;;24.08;37.07
19811;BME280;10065;49.632;8.346;2022-07-10T12:25:31;101337.50;;;24.04;37.19
19811;BME280;10065;49.632;8.346;2022-07-10T12:27:59;101325.91;;;23.84;36.87
19811;BME280;10065;49.632;8.346;2022-07-10T12:30:38;101324.44;;;23.88;36.94
19811;BME280;10065;49.632;8.346;2022-07-10T12:33:10;101332.16;;;23.84;37.23
19811;BME280;10065;49.632;8.346;2022-07-10T12:35:48;101324.28;;;23.83;36.98
19811;BME280;10065;49.632;8.346;2022-07-10T12:38:18;101332.59;;;23.81;37.40
19811;BME280;10065;49.632;8.346;2022-07-10T12:40:46;101332.84;;;23.67;37.25
19811;BME280;10065;49.632;8.346;2022-07-10T12:43:24;101327.66;;;23.72;37.15
19811;BME280;10065;49.632;8.346;2022-07-10T12:46:10;101332.25;;;23.65;37.33
19811;BME280;10065;49.632;8.346;2022-07-10T12:48:38;101323.69;;;23.68;37.36
19811;BME280;10065;49.632;8.346;2022-07-10T12:51:25;101320.75;;;23.76;37.85
19811;BME280;10065;49.632;8.346;2022-07-10T12:54:30;101308.41;;;23.86;38.35
19811;BME280;10065;49.632;8.346;2022-07-10T12:56:59;101317.78;;;23.84;38.06
19811;BME280;10065;49.632;8.346;2022-07-10T12:59:27;101319.66;;;23.90;37.42
19811;BME280;10065;49.632;8.346;2022-07-10T13:01:55;101312.50;;;24.02;37.48
19811;BME280;10065;49.632;8.346;2022-07-10T13:04:26;101313.66;;;24.19;37.65
19811;BME280;10065;49.632;8.346;2022-07-10T13:07:11;101317.00;;;24.21;36.45
19811;BME280;10065;49.632;8.346;2022-07-10T13:09:40;101315.19;;;24.09;37.02